Time;durP1;ratioP1;P1;durP2;ratioP2;P2;SDS_P1;SDS_P2;PMS_P1;PMS_P2;Temp;Humidity;BMP_temperature;BMP_pressure;BME280_temperature;BME280_humidity;BME280_pressure;Samples;Min_cycle;Max_cycle;Signal;HPM_P1;HPM_P2
2022/03/14 00:02:20;;;;;;;39.20;16.60;;;8.10;43.40;;;;;;5027066;28;20540;-49
2022/03/14 00:04:51;;;;;;;37.03;16.93;;;8.10;43.30;;;;;;5026706;28;20558;-48
2022/03/14 00:07:18;;;;;;;38.60;16.93;;;8.10;43.30;;;;;;5029549;28;20251;-50
2022/03/14 00:09:47;;;;;;;38.07;18.27;;;8.20;43.30;;;;;;5031860;28;20220;-48
2022/03/14 00:12:19;;;;;;;32.43;15.20;;;8.20;43.40;;;;;;5028520;28;20190;-49
2022/03/14 00:14:46;;;;;;;41.57;16.47;;;8.10;43.30;;;;;;5031038;28;20196;-48
2022/03/14 00:17:13;;;;;;;30.63;14.43;;;8.00;43.50;;;;;;5025901;28;20213;-47
2022/03/14 00:19:41;;;;;;;41.33;17.30;;;7.90;43.50;;;;;;5025845;28;20193;-48
2022/03/14 00:22:10;;;;;;;36.60;16.47;;;7.80;43.60;;;;;;5023478;28;20206;-47
2022/03/14 00:24:42;;;;;;;38.67;15.70;;;7.80;43.70;;;;;;5028934;28;20703;-47
2022/03/14 00:27:10;;;;;;;38.80;16.83;;;7.80;44.50;;;;;;5028430;28;20638;-47
2022/03/14 00:29:37;;;;;;;40.30;15.40;;;7.80;43.80;;;;;;5010883;28;20313;-49
2022/03/14 00:32:06;;;;;;;38.30;16.93;;;7.80;43.80;;;;;;5010570;28;20697;-52
2022/03/14 00:34:33;;;;;;;37.67;16.77;;;7.80;44.00;;;;;;5031948;28;20197;-50
2022/03/14 00:37:00;;;;;;;33.50;15.30;;;7.80;44.00;;;;;;5024043;28;20183;-51
2022/03/14 00:39:28;;;;;;;28.87;13.30;;;7.80;44.60;;;;;;5028210;28;20625;-52
2022/03/14 00:41:55;;;;;;;29.83;13.60;;;7.80;44.00;;;;;;5030468;28;20516;-53
2022/03/14 00:44:24;;;;;;;25.67;12.40;;;7.80;44.00;;;;;;5028510;28;20224;-50
2022/03/14 00:46:51;;;;;;;28.13;12.67;;;7.80;44.00;;;;;;5027767;28;20230;-47
2022/03/14 00:49:18;;;;;;;31.60;14.47;;;7.80;44.00;;;;;;5024876;28;20230;-49
2022/03/14 00:51:45;;;;;;;33.13;14.57;;;7.80;44.00;;;;;;5027140;28;20661;-47
2022/03/14 00:54:13;;;;;;;26.73;13.27;;;7.80;44.10;;;;;;5026474;28;20681;-50
2022/03/14 00:56:40;;;;;;;27.87;13.13;;;7.80;44.10;;;;;;5031664;28;20269;-50
2022/03/14 00:59:07;;;;;;;38.73;16.33;;;7.70;44.00;;;;;;5027701;28;20218;-48
2022/03/14 01:01:35;;;;;;;32.27;14.27;;;7.80;44.30;;;;;;5029386;28;20281;-44
2022/03/14 01:04:02;;;;;;;31.00;14.57;;;7.70;44.20;;;;;;5020920;28;20228;-44
2022/03/14 01:06:30;;;;;;;26.30;12.17;;;7.70;44.30;;;;;;5027973;28;20212;-48
2022/03/14 01:08:57;;;;;;;31.60;12.50;;;7.70;44.30;;;;;;5012519;28;20204;-48
2022/03/14 01:11:24;;;;;;;24.00;11.50;;;7.60;44.30;;;;;;5022699;28;20720;-50
2022/03/14 01:13:51;;;;;;;26.90;12.47;;;7.60;44.30;;;;;;5027368;28;20245;-47
2022/03/14 01:16:18;;;;;;;24.37;11.40;;;7.50;44.30;;;;;;5022035;28;20579;-46
2022/03/14 01:18:47;;;;;;;30.37;13.03;;;7.50;44.50;;;;;;5022552;28;20194;-47
2022/03/14 01:21:14;;;;;;;22.73;11.20;;;7.50;44.60;;;;;;5021154;28;20200;-47
2022/03/14 01:23:41;;;;;;;30.40;14.33;;;7.50;44.60;;;;;;5025322;28;20200;-46
2022/03/14 01:26:09;;;;;;;24.23;10.60;;;7.40;44.50;;;;;;5025813;28;20209;-47
2022/03/14 01:28:36;;;;;;;34.37;15.80;;;7.40;44.60;;;;;;5027079;28;20193;-47
2022/03/14 01:31:04;;;;;;;31.13;13.63;;;7.40;44.70;;;;;;5028563;28;20197;-48
2022/03/14 01:33:31;;;;;;;25.83;12.20;;;7.30;44.80;;;;;;5023926;28;20202;-47
2022/03/14 01:35:59;;;;;;;28.20;12.00;;;7.40;44.80;;;;;;5024452;28;20207;-47
2022/03/14 01:38:26;;;;;;;30.20;13.00;;;7.40;44.90;;;;;;5028297;28;20197;-49
2022/03/14 01:40:55;;;;;;;26.33;11.77;;;7.30;44.90;;;;;;5028420;28;20265;-50
2022/03/14 01:43:25;;;;;;;21.57;10.37;;;7.20;44.90;;;;;;5028047;28;20194;-48
2022/03/14 01:45:56;;;;;;;28.43;12.23;;;7.20;45.00;;;;;;5022421;28;20266;-47
2022/03/14 01:48:24;;;;;;;22.30;10.20;;;7.20;45.10;;;;;;5009267;28;20575;-47
2022/03/14 01:50:51;;;;;;;21.43;10.10;;;7.20;45.10;;;;;;5024463;28;20193;-48
2022/03/14 01:53:22;;;;;;;26.10;12.07;;;7.20;45.10;;;;;;5009915;28;20208;-48
2022/03/14 01:55:50;;;;;;;25.80;11.13;;;7.10;45.20;;;;;;5028654;28;20556;-47
2022/03/14 01:58:17;;;;;;;24.60;11.33;;;7.10;45.30;;;;;;5029657;28;20221;-46
2022/03/14 02:00:45;;;;;;;26.60;10.87;;;7.00;45.40;;;;;;5024845;28;20572;-45
2022/03/14 02:03:12;;;;;;;23.23;10.83;;;7.00;45.40;;;;;;5028949;28;20234;-46
2022/03/14 02:05:41;;;;;;;21.60;9.90;;;7.00;45.40;;;;;;5025122;28;20264;-47
2022/03/14 02:08:08;;;;;;;25.33;11.27;;;7.00;45.40;;;;;;5019858;28;20195;-52
2022/03/14 02:10:38;;;;;;;26.53;10.57;;;7.00;45.50;;;;;;5022591;28;20199;-51
2022/03/14 02:13:07;;;;;;;25.43;10.23;;;7.00;45.60;;;;;;5025424;28;20192;-48
2022/03/14 02:15:35;;;;;;;30.33;11.93;;;7.00;45.60;;;;;;5022131;28;20216;-50
2022/03/14 02:18:03;;;;;;;27.83;12.17;;;7.00;45.70;;;;;;5027636;28;20291;-49
2022/03/14 02:20:32;;;;;;;22.63;10.57;;;6.90;45.60;;;;;;5022154;28;20192;-50
2022/03/14 02:22:59;;;;;;;22.63;9.80;;;6.90;45.70;;;;;;5028040;28;20221;-48
2022/03/14 02:25:26;;;;;;;23.00;10.43;;;6.90;45.80;;;;;;5019936;28;20199;-48
2022/03/14 02:27:53;;;;;;;20.57;9.13;;;6.90;45.80;;;;;;5015150;28;20204;-48
2022/03/14 02:30:22;;;;;;;20.83;9.37;;;6.90;45.90;;;;;;5026987;28;20196;-49
2022/03/14 02:32:50;;;;;;;20.17;9.13;;;6.80;45.80;;;;;;5026727;28;20195;-51
2022/03/14 02:35:17;;;;;;;19.00;8.80;;;6.80;45.90;;;;;;5023853;28;20259;-46
2022/03/14 02:37:47;;;;;;;18.73;8.70;;;6.80;45.90;;;;;;5023744;28;20191;-46
2022/03/14 02:40:16;;;;;;;25.47;10.50;;;6.70;45.90;;;;;;5007123;28;20194;-45
2022/03/14 02:42:43;;;;;;;21.13;9.93;;;6.70;46.20;;;;;;5028245;28;20567;-49
2022/03/14 02:45:10;;;;;;;22.00;9.90;;;6.60;46.30;;;;;;5026215;28;20192;-49
2022/03/14 02:47:38;;;;;;;26.43;11.17;;;6.60;46.40;;;;;;5024731;28;20476;-47
2022/03/14 02:50:06;;;;;;;24.40;10.90;;;6.60;46.40;;;;;;5024998;28;20194;-46
2022/03/14 02:52:33;;;;;;;25.53;12.13;;;6.60;46.50;;;;;;5026176;28;20196;-49
2022/03/14 02:55:02;;;;;;;29.73;12.47;;;6.60;46.60;;;;;;5019410;28;20202;-46
2022/03/14 02:57:31;;;;;;;23.17;10.13;;;6.60;46.60;;;;;;5019692;28;20198;-47
2022/03/14 02:59:58;;;;;;;25.00;11.03;;;6.70;46.60;;;;;;5023057;28;20822;-48
2022/03/14 03:02:25;;;;;;;18.07;9.07;;;6.60;46.50;;;;;;5020754;28;20266;-45
2022/03/14 03:04:53;;;;;;;21.37;9.53;;;6.60;46.60;;;;;;5020847;28;20290;-47
2022/03/14 03:07:20;;;;;;;21.93;9.07;;;6.70;46.70;;;;;;5016199;28;20203;-49
2022/03/14 03:09:47;;;;;;;18.93;9.13;;;6.70;46.60;;;;;;5018750;28;20207;-47
2022/03/14 03:12:16;;;;;;;21.90;9.00;;;6.70;46.60;;;;;;5016768;28;20195;-47
2022/03/14 03:14:43;;;;;;;21.73;9.07;;;6.60;46.60;;;;;;5025469;28;20601;-51
2022/03/14 03:17:10;;;;;;;20.33;9.17;;;6.60;46.70;;;;;;5027142;28;20192;-48
2022/03/14 03:19:37;;;;;;;22.10;9.33;;;6.60;46.70;;;;;;5024130;28;20211;-49
2022/03/14 03:22:05;;;;;;;23.60;9.63;;;6.60;46.80;;;;;;5026022;28;20199;-48
2022/03/14 03:24:32;;;;;;;23.30;9.47;;;6.50;46.80;;;;;;5020700;28;20621;-48
2022/03/14 03:26:59;;;;;;;21.53;9.77;;;6.50;46.80;;;;;;5022741;28;20213;-45
2022/03/14 03:29:28;;;;;;;30.20;12.47;;;6.60;47.50;;;;;;5025245;28;20220;-46
2022/03/14 03:31:55;;;;;;;23.37;9.67;;;6.50;46.90;;;;;;5027717;28;20193;-46
2022/03/14 03:34:22;;;;;;;23.40;9.23;;;6.50;46.90;;;;;;5024014;28;20564;-45
2022/03/14 03:36:49;;;;;;;22.50;9.37;;;6.50;46.90;;;;;;5015745;28;20226;-54
2022/03/14 03:39:16;;;;;;;23.10;9.67;;;6.50;46.90;;;;;;5028326;28;20196;-50
2022/03/14 03:41:43;;;;;;;25.30;11.33;;;6.50;47.10;;;;;;5024135;28;20646;-48
2022/03/14 03:44:11;;;;;;;18.83;8.90;;;6.40;47.00;;;;;;5023767;28;20206;-52
2022/03/14 03:46:39;;;;;;;28.37;11.27;;;6.40;47.00;;;;;;5012044;28;20617;-48
2022/03/14 03:49:06;;;;;;;20.27;9.13;;;6.40;47.10;;;;;;5023168;28;20250;-48
2022/03/14 03:51:33;;;;;;;24.27;9.67;;;6.40;47.10;;;;;;5027930;28;20645;-53
2022/03/14 03:54:02;;;;;;;25.07;10.27;;;6.40;47.20;;;;;;5018973;28;20203;-54
2022/03/14 03:56:30;;;;;;;27.23;10.90;;;6.30;47.10;;;;;;5027981;28;20301;-50
2022/03/14 03:58:57;;;;;;;23.97;9.57;;;6.30;47.20;;;;;;5028245;28;20281;-45
2022/03/14 04:01:24;;;;;;;24.47;9.80;;;6.30;47.40;;;;;;5024321;28;20198;-48
2022/03/14 04:03:55;;;;;;;25.30;10.97;;;6.30;47.40;;;;;;5027637;28;20266;-47
2022/03/14 04:06:26;;;;;;;21.03;9.87;;;6.40;47.40;;;;;;5020485;28;20202;-48
2022/03/14 04:08:55;;;;;;;19.53;8.50;;;6.40;47.40;;;;;;5024918;28;20207;-46
2022/03/14 04:11:22;;;;;;;22.33;10.20;;;6.40;47.30;;;;;;5027687;28;20217;-47
2022/03/14 04:13:51;;;;;;;24.57;9.53;;;6.40;47.30;;;;;;5026471;28;20264;-44
2022/03/14 04:16:18;;;;;;;19.47;9.37;;;6.50;47.30;;;;;;5027754;28;20197;-50
2022/03/14 04:18:47;;;;;;;23.20;10.10;;;6.50;47.20;;;;;;5027061;28;20187;-50
2022/03/14 04:21:16;;;;;;;28.07;10.83;;;6.40;47.10;;;;;;5029287;28;20196;-48
2022/03/14 04:23:44;;;;;;;21.57;9.70;;;6.40;47.10;;;;;;5031268;28;20760;-48
2022/03/14 04:26:11;;;;;;;20.43;9.27;;;6.40;47.10;;;;;;5032144;28;20218;-47
2022/03/14 04:28:40;;;;;;;23.40;9.30;;;6.30;47.10;;;;;;5025041;28;20318;-50
2022/03/14 04:31:08;;;;;;;20.23;8.23;;;6.30;47.10;;;;;;5028073;28;20297;-48
2022/03/14 04:33:36;;;;;;;17.80;8.40;;;6.40;47.20;;;;;;5027961;28;20218;-49
2022/03/14 04:36:04;;;;;;;24.93;11.20;;;6.30;47.20;;;;;;5025600;28;20195;-45
2022/03/14 04:38:33;;;;;;;26.37;11.07;;;6.30;47.20;;;;;;5024388;28;20261;-50
2022/03/14 04:41:00;;;;;;;23.47;11.03;;;6.30;47.20;;;;;;5027412;28;20205;-47
2022/03/14 04:43:27;;;;;;;28.30;11.07;;;6.40;47.20;;;;;;5021154;28;20194;-49
2022/03/14 04:45:54;;;;;;;19.40;9.03;;;6.30;47.20;;;;;;5027376;28;20278;-49
2022/03/14 04:48:21;;;;;;;27.07;9.93;;;6.30;47.20;;;;;;5024121;28;20297;-49
2022/03/14 04:50:49;;;;;;;25.17;10.57;;;6.20;47.20;;;;;;5015560;28;20207;-49
2022/03/14 04:53:17;;;;;;;31.43;12.70;;;6.20;47.40;;;;;;5026406;28;20633;-48
2022/03/14 04:55:45;;;;;;;27.40;11.33;;;6.20;47.40;;;;;;5028373;28;20198;-49
2022/03/14 04:58:14;;;;;;;33.23;13.20;;;6.10;47.40;;;;;;5020395;28;20182;-50
2022/03/14 05:00:42;;;;;;;27.07;10.83;;;6.10;47.40;;;;;;5026427;28;20281;-45
2022/03/14 05:03:11;;;;;;;24.13;11.07;;;6.10;47.40;;;;;;5029360;28;20226;-45
2022/03/14 05:05:41;;;;;;;28.23;11.10;;;6.10;47.50;;;;;;5012963;28;20330;-51
2022/03/14 05:08:08;;;;;;;21.97;9.60;;;6.00;47.50;;;;;;5025810;28;20202;-45
2022/03/14 05:10:35;;;;;;;24.93;10.57;;;6.00;47.60;;;;;;5028844;28;20222;-52
2022/03/14 05:13:04;;;;;;;19.83;9.40;;;6.00;47.60;;;;;;5027068;28;20226;-53
2022/03/14 05:15:33;;;;;;;23.77;11.07;;;6.00;47.60;;;;;;5019402;28;20194;-49
2022/03/14 05:18:02;;;;;;;20.57;9.77;;;5.90;47.50;;;;;;5024367;28;20202;-52
2022/03/14 05:20:29;;;;;;;21.43;9.60;;;6.00;47.80;;;;;;5025762;28;20205;-48
2022/03/14 05:22:57;;;;;;;19.57;8.40;;;6.00;47.90;;;;;;5024988;28;20198;-44
2022/03/14 05:25:25;;;;;;;15.57;7.53;;;5.90;47.80;;;;;;5024716;28;20201;-46
2022/03/14 05:27:54;;;;;;;15.20;7.30;;;5.90;47.80;;;;;;5028675;28;20284;-45
2022/03/14 05:30:23;;;;;;;13.07;6.47;;;5.80;47.80;;;;;;5026470;28;20917;-45
2022/03/14 05:32:50;;;;;;;14.47;7.10;;;5.80;47.90;;;;;;5030516;28;20218;-47
2022/03/14 05:35:18;;;;;;;13.87;6.40;;;5.80;48.10;;;;;;5027864;28;20187;-52
2022/03/14 05:37:46;;;;;;;14.03;6.77;;;5.80;48.10;;;;;;5020529;28;20202;-45
2022/03/14 05:40:15;;;;;;;9.63;6.00;;;5.80;48.00;;;;;;5029075;28;20261;-46
2022/03/14 05:42:45;;;;;;;17.70;6.90;;;5.80;48.10;;;;;;5026683;28;20221;-47
2022/03/14 05:45:13;;;;;;;12.93;6.37;;;5.80;48.20;;;;;;5026932;28;20511;-50
2022/03/14 05:47:42;;;;;;;10.07;5.80;;;5.80;48.20;;;;;;5029496;28;20660;-47
2022/03/14 05:50:10;;;;;;;11.60;5.83;;;5.80;48.30;;;;;;5028017;28;20555;-52
2022/03/14 05:52:37;;;;;;;12.17;6.23;;;5.70;48.30;;;;;;5022171;28;20207;-50
2022/03/14 05:55:05;;;;;;;8.33;5.33;;;5.70;48.30;;;;;;5020329;28;20284;-51
2022/03/14 05:57:33;;;;;;;14.83;6.97;;;5.60;48.30;;;;;;5030057;28;20195;-49
2022/03/14 06:00:00;;;;;;;14.23;7.73;;;5.70;48.50;;;;;;5021450;28;20209;-49
2022/03/14 06:02:28;;;;;;;16.53;8.20;;;5.70;48.70;;;;;;5026217;28;20190;-48
2022/03/14 06:04:56;;;;;;;19.00;8.93;;;5.70;48.80;;;;;;5025145;28;20213;-46
2022/03/14 06:07:23;;;;;;;17.13;8.30;;;5.70;49.00;;;;;;5021470;28;20559;-49
2022/03/14 06:09:51;;;;;;;14.07;7.17;;;5.70;49.00;;;;;;5027130;28;20277;-47
2022/03/14 06:12:28;;;;;;;11.60;7.00;;;5.70;48.80;;;;;;5027748;28;20195;-49
2022/03/14 06:14:58;;;;;;;10.47;5.93;;;5.70;48.80;;;;;;5024597;28;20282;-50
2022/03/14 06:17:26;;;;;;;21.27;8.97;;;5.70;48.80;;;;;;5027759;28;20190;-50
2022/03/14 06:19:53;;;;;;;17.30;8.40;;;5.80;49.00;;;;;;5029830;28;20213;-47
2022/03/14 06:22:23;;;;;;;23.67;11.03;;;5.80;48.90;;;;;;5018810;28;20190;-52
2022/03/14 06:24:51;;;;;;;21.13;9.90;;;5.80;48.90;;;;;;5029531;28;20202;-47
2022/03/14 06:27:20;;;;;;;23.20;10.40;;;5.90;48.90;;;;;;5028047;28;20225;-48
2022/03/14 06:29:49;;;;;;;18.67;8.90;;;6.00;48.90;;;;;;5025609;28;20202;-48
2022/03/14 06:32:17;;;;;;;18.40;8.97;;;5.90;48.70;;;;;;5027946;28;20553;-50
2022/03/14 06:34:44;;;;;;;16.50;8.37;;;6.00;48.80;;;;;;5027873;28;20539;-45
2022/03/14 06:37:12;;;;;;;19.73;9.17;;;6.10;48.70;;;;;;5026695;28;20190;-47
2022/03/14 06:39:41;;;;;;;23.23;10.67;;;6.10;48.50;;;;;;5028294;28;20469;-51
2022/03/14 06:42:10;;;;;;;23.80;10.50;;;6.20;48.70;;;;;;5025845;28;21037;-47
2022/03/14 06:44:38;;;;;;;25.90;11.63;;;6.10;48.50;;;;;;5027205;28;20526;-47
2022/03/14 06:47:06;;;;;;;25.33;11.20;;;6.10;48.50;;;;;;5016717;28;20213;-51
2022/03/14 06:49:33;;;;;;;33.27;14.63;;;6.10;48.50;;;;;;5018581;28;20602;-46
2022/03/14 06:52:00;;;;;;;27.00;11.90;;;6.10;48.80;;;;;;5026613;28;20206;-47
2022/03/14 06:54:27;;;;;;;24.07;12.27;;;6.10;48.70;;;;;;5027810;28;20603;-45
2022/03/14 06:56:56;;;;;;;33.80;14.60;;;6.20;48.80;;;;;;5018574;28;20206;-45
2022/03/14 06:59:23;;;;;;;26.83;12.27;;;6.20;49.00;;;;;;5015900;28;20598;-50
2022/03/14 07:01:56;;;;;;;24.13;11.53;;;6.20;49.00;;;;;;5024733;28;20273;-53
2022/03/14 07:04:24;;;;;;;28.93;10.60;;;6.20;49.10;;;;;;5022058;28;20364;-46
2022/03/14 07:06:52;;;;;;;22.27;10.10;;;6.30;49.30;;;;;;5021999;28;20187;-50
2022/03/14 07:09:19;;;;;;;25.77;10.03;;;6.20;49.20;;;;;;5017617;28;20190;-51
2022/03/14 07:11:51;;;;;;;28.20;11.97;;;6.30;49.30;;;;;;5025727;28;20194;-52
2022/03/14 07:14:20;;;;;;;23.77;10.87;;;6.20;49.80;;;;;;5024306;28;20190;-47
2022/03/14 07:16:47;;;;;;;25.20;10.83;;;6.20;49.90;;;;;;5024735;28;20694;-50
2022/03/14 07:19:15;;;;;;;19.73;10.33;;;6.30;50.00;;;;;;5027170;28;20226;-48
2022/03/14 07:21:42;;;;;;;22.43;10.80;;;6.30;49.90;;;;;;5027959;28;20574;-46
2022/03/14 07:24:09;;;;;;;23.33;10.97;;;6.30;49.90;;;;;;5023620;28;20203;-51
2022/03/14 07:26:36;;;;;;;18.73;10.20;;;6.40;50.00;;;;;;5021554;28;20202;-46
2022/03/14 07:29:07;;;;;;;18.17;8.70;;;6.40;49.70;;;;;;5023586;28;20206;-52
2022/03/14 07:31:37;;;;;;;19.33;9.43;;;6.40;49.70;;;;;;5025031;28;20204;-51
2022/03/14 07:34:05;;;;;;;19.60;9.67;;;6.50;49.80;;;;;;5027451;28;20199;-48
2022/03/14 07:36:34;;;;;;;18.67;8.73;;;6.50;49.70;;;;;;5020925;28;20207;-46
2022/03/14 07:39:01;;;;;;;21.17;10.17;;;6.50;49.60;;;;;;5025221;28;20198;-44
2022/03/14 07:41:29;;;;;;;19.03;9.27;;;6.60;49.80;;;;;;5023451;28;20246;-46
2022/03/14 07:43:56;;;;;;;16.10;8.93;;;6.70;49.80;;;;;;5022941;28;20370;-43
2022/03/14 07:46:23;;;;;;;16.97;8.87;;;6.80;49.70;;;;;;5021945;28;20202;-45
2022/03/14 07:48:55;;;;;;;19.97;10.10;;;6.80;49.50;;;;;;5029955;28;20293;-46
2022/03/14 07:51:22;;;;;;;24.77;11.53;;;6.90;49.50;;;;;;5029409;28;20199;-49
2022/03/14 07:53:49;;;;;;;20.37;9.43;;;7.00;49.60;;;;;;5027243;28;20733;-47
2022/03/14 07:56:21;;;;;;;24.43;11.27;;;7.10;49.50;;;;;;5023189;28;20211;-46
2022/03/14 07:58:49;;;;;;;21.83;10.83;;;7.30;49.60;;;;;;5020804;28;20363;-48
2022/03/14 08:01:17;;;;;;;19.83;10.73;;;7.50;49.60;;;;;;5029172;28;20282;-47
2022/03/14 08:03:45;;;;;;;20.93;10.20;;;8.00;49.10;;;;;;5026060;28;20355;-50
2022/03/14 08:06:22;;;;;;;20.27;9.23;;;9.30;48.30;;;;;;5027673;28;20206;-47
2022/03/14 08:08:52;;;;;;;17.10;9.00;;;10.60;45.40;;;;;;5023290;28;20208;-49
2022/03/14 08:11:22;;;;;;;21.17;8.40;;;11.70;43.30;;;;;;5020239;28;20199;-48
2022/03/14 08:13:49;;;;;;;19.20;9.73;;;12.50;42.10;;;;;;5028398;28;20218;-51
2022/03/14 08:16:17;;;;;;;16.40;8.07;;;13.30;40.80;;;;;;5023044;28;20558;-48
2022/03/14 08:18:45;;;;;;;16.37;9.43;;;14.00;39.90;;;;;;5022934;28;20222;-47
2022/03/14 08:21:13;;;;;;;15.67;7.30;;;14.70;39.20;;;;;;5022578;28;20226;-44
2022/03/14 08:23:41;;;;;;;10.70;6.90;;;15.30;38.10;;;;;;5020494;28;20195;-46
2022/03/14 08:26:08;;;;;;;20.23;9.63;;;15.90;37.90;;;;;;5024970;28;20208;-50
2022/03/14 08:28:35;;;;;;;15.70;9.23;;;16.30;37.30;;;;;;5021881;28;20634;-46
2022/03/14 08:31:03;;;;;;;13.40;8.50;;;16.70;35.70;;;;;;5022360;28;20192;-50
2022/03/14 08:33:31;;;;;;;17.40;8.03;;;17.00;35.30;;;;;;5020623;28;20205;-51
2022/03/14 08:36:00;;;;;;;12.70;7.63;;;17.40;35.10;;;;;;5023219;28;20289;-49
2022/03/14 08:38:29;;;;;;;15.27;8.53;;;17.60;34.50;;;;;;5027806;28;20286;-48
2022/03/14 08:40:56;;;;;;;22.63;10.30;;;17.80;34.30;;;;;;5029688;28;20625;-44
2022/03/14 08:43:23;;;;;;;16.30;9.03;;;17.90;33.10;;;;;;5023942;28;20212;-48
2022/03/14 08:45:51;;;;;;;14.93;7.97;;;17.90;32.70;;;;;;5017333;28;20205;-48
2022/03/14 08:48:18;;;;;;;16.33;9.20;;;18.00;33.10;;;;;;5024959;28;20202;-48
2022/03/14 08:50:45;;;;;;;14.80;9.13;;;18.10;32.60;;;;;;5021744;28;20206;-44
2022/03/14 08:53:12;;;;;;;18.67;9.87;;;18.30;32.50;;;;;;5024699;28;20434;-50
2022/03/14 08:55:41;;;;;;;18.43;9.67;;;18.30;32.00;;;;;;5029542;28;20211;-48
2022/03/14 08:58:08;;;;;;;19.43;9.67;;;18.30;32.10;;;;;;5022437;28;20184;-45
2022/03/14 09:00:38;;;;;;;15.00;9.07;;;18.20;32.20;;;;;;5025864;28;20231;-47
2022/03/14 09:03:07;;;;;;;13.63;7.82;;;18.20;32.20;;;;;;5026082;28;20833;-48
2022/03/14 09:05:35;;;;;;;15.47;8.83;;;18.00;32.80;;;;;;5025577;28;20294;-47
2022/03/14 09:08:04;;;;;;;15.63;8.80;;;18.30;32.30;;;;;;5022295;28;20205;-49
2022/03/14 09:10:36;;;;;;;16.30;9.77;;;18.30;31.90;;;;;;5007743;28;20594;-47
2022/03/14 09:13:05;;;;;;;15.17;8.47;;;18.40;31.60;;;;;;5023787;28;20653;-45
2022/03/14 09:15:34;;;;;;;15.93;8.47;;;18.20;31.70;;;;;;5021160;28;20734;-50
2022/03/14 09:18:03;;;;;;;17.37;8.77;;;18.00;31.90;;;;;;5025597;28;20634;-44
2022/03/14 09:20:31;;;;;;;13.00;8.00;;;17.80;32.30;;;;;;5028972;28;20647;-47
2022/03/14 09:22:58;;;;;;;13.37;8.03;;;17.70;32.60;;;;;;5028709;28;20582;-48
2022/03/14 09:25:25;;;;;;;12.50;7.87;;;17.80;32.50;;;;;;5020357;28;20209;-50
2022/03/14 09:27:53;;;;;;;17.47;9.63;;;18.00;32.50;;;;;;5024492;28;20260;-52
2022/03/14 09:30:22;;;;;;;13.23;8.13;;;18.00;33.20;;;;;;5019438;28;20561;-46
2022/03/14 09:32:49;;;;;;;19.43;8.10;;;18.20;34.00;;;;;;5026280;28;20205;-48
2022/03/14 09:35:17;;;;;;;19.50;10.40;;;18.50;33.70;;;;;;5028627;28;20194;-48
2022/03/14 09:37:45;;;;;;;21.63;10.10;;;18.50;31.80;;;;;;5024948;28;20227;-43
2022/03/14 09:40:16;;;;;;;13.90;9.00;;;18.20;31.60;;;;;;5030175;28;20209;-54
2022/03/14 09:42:45;;;;;;;19.97;9.13;;;18.00;32.30;;;;;;5020780;28;20194;-46
2022/03/14 09:45:13;;;;;;;15.83;8.00;;;17.80;32.60;;;;;;5026226;28;20263;-47
2022/03/14 09:47:44;;;;;;;12.33;7.73;;;17.80;33.00;;;;;;5021469;28;20191;-52
2022/03/14 09:50:13;;;;;;;17.17;9.10;;;18.00;32.80;;;;;;5008009;28;20199;-44
2022/03/14 09:52:43;;;;;;;16.27;9.43;;;18.30;32.30;;;;;;5025063;28;20195;-47
2022/03/14 09:55:12;;;;;;;11.97;8.00;;;18.80;31.80;;;;;;5021020;28;20244;-46
2022/03/14 09:57:40;;;;;;;13.03;7.83;;;19.60;31.30;;;;;;5015835;28;20221;-51
2022/03/14 10:00:10;;;;;;;13.47;8.27;;;20.50;30.90;;;;;;5026558;28;20202;-45
2022/03/14 10:02:42;;;;;;;16.93;9.50;;;21.40;29.70;;;;;;5022970;28;20233;-46
2022/03/14 10:05:11;;;;;;;15.83;10.30;;;22.40;29.20;;;;;;5025832;28;20540;-45
2022/03/14 10:07:39;;;;;;;14.23;8.23;;;23.10;28.20;;;;;;5027985;28;20203;-53
2022/03/14 10:10:09;;;;;;;13.38;9.38;;;23.90;28.30;;;;;;5024405;28;20212;-47
2022/03/14 10:12:38;;;;;;;13.15;9.02;;;24.70;27.90;;;;;;5023719;28;20569;-49
2022/03/14 10:15:07;;;;;;;12.70;8.68;;;25.20;27.40;;;;;;5027387;28;20197;-50
2022/03/14 10:17:35;;;;;;;12.63;8.77;;;25.70;27.30;;;;;;5017987;28;20209;-48
2022/03/14 10:20:06;;;;;;;14.02;9.73;;;26.20;27.00;;;;;;5027486;28;20559;-51
2022/03/14 10:22:35;;;;;;;16.30;10.02;;;26.50;25.90;;;;;;5026172;28;20197;-46
2022/03/14 10:25:05;;;;;;;14.73;9.93;;;26.80;25.20;;;;;;5023025;28;20550;-51
2022/03/14 10:27:35;;;;;;;44.10;9.68;;;26.90;24.60;;;;;;5025872;28;20627;-44
2022/03/14 10:30:03;;;;;;;12.00;9.07;;;27.40;26.90;;;;;;5026605;28;20225;-48
2022/03/14 10:32:31;;;;;;;15.57;10.20;;;27.30;24.60;;;;;;5022265;28;20198;-50
2022/03/14 10:35:05;;;;;;;12.02;8.15;;;27.50;24.10;;;;;;5025674;28;20264;-48
2022/03/14 10:37:33;;;;;;;12.63;8.40;;;27.70;24.40;;;;;;5018245;28;20195;-49
2022/03/14 10:40:02;;;;;;;11.85;8.50;;;28.20;24.30;;;;;;5027641;28;20202;-46
2022/03/14 10:42:37;;;;;;;18.35;11.07;;;28.20;24.00;;;;;;5025975;28;20244;-45
2022/03/14 10:45:10;;;;;;;13.27;9.45;;;28.20;23.00;;;;;;5019840;28;20218;-50
2022/03/14 10:47:37;;;;;;;13.90;9.73;;;28.20;23.50;;;;;;5024846;28;20277;-49
2022/03/14 10:50:09;;;;;;;16.42;10.43;;;28.20;23.20;;;;;;5024166;28;20579;-48
2022/03/14 10:52:36;;;;;;;12.32;7.55;;;28.20;23.30;;;;;;5023508;28;20543;-48
2022/03/14 10:55:11;;;;;;;14.18;9.63;;;28.50;23.50;;;;;;5010882;28;20244;-47
2022/03/14 10:57:48;;;;;;;15.60;10.43;;;29.00;23.50;;;;;;5025670;28;20705;-48
2022/03/14 11:00:16;;;;;;;10.70;8.18;;;29.10;22.30;;;;;;5024952;28;20654;-51
2022/03/14 11:03:03;;;;;;;14.88;10.60;;;29.20;22.60;;;;;;5020500;28;20253;-50
2022/03/14 11:05:43;;;;;;;16.30;9.85;;;29.00;22.30;;;;;;5020018;28;20536;-46
2022/03/14 11:08:26;;;;;;;13.80;9.98;;;29.10;22.10;;;;;;5024948;28;20701;-51
2022/03/14 11:10:53;;;;;;;12.07;8.63;;;29.00;21.90;;;;;;5026896;28;20690;-48
2022/03/14 11:13:20;;;;;;;15.68;9.90;;;29.00;21.80;;;;;;5026136;28;20197;-48
2022/03/14 11:15:47;;;;;;;13.60;9.07;;;29.00;21.50;;;;;;5026344;28;20531;-49
2022/03/14 11:18:16;;;;;;;15.50;10.05;;;29.00;21.70;;;;;;5025036;28;20556;-48
2022/03/14 11:20:45;;;;;;;15.95;10.30;;;29.10;21.50;;;;;;5029438;28;20673;-45
2022/03/14 11:23:14;;;;;;;18.05;10.48;;;29.20;21.70;;;;;;5025180;28;20187;-48
2022/03/14 11:25:44;;;;;;;12.35;9.10;;;29.50;21.60;;;;;;5024160;28;20194;-46
2022/03/14 11:28:16;;;;;;;14.35;9.65;;;29.40;21.60;;;;;;5033189;28;20587;-49
2022/03/14 11:30:47;;;;;;;13.82;9.38;;;29.70;21.50;;;;;;5026919;28;20717;-45
2022/03/14 11:33:15;;;;;;;15.35;9.65;;;29.90;21.20;;;;;;5028790;28;20202;-48
2022/03/14 11:35:44;;;;;;;14.38;10.05;;;30.10;21.10;;;;;;5031136;28;20202;-50
2022/03/14 11:38:13;;;;;;;13.55;9.88;;;30.10;20.70;;;;;;5011806;28;20708;-54
2022/03/14 11:40:41;;;;;;;15.23;10.27;;;29.90;20.90;;;;;;5029327;28;20275;-50
2022/03/14 11:43:09;;;;;;;18.00;9.73;;;29.80;20.80;;;;;;5032037;28;20197;-47
2022/03/14 11:45:37;;;;;;;16.80;9.98;;;29.80;21.00;;;;;;5027570;28;20195;-46
2022/03/14 11:48:06;;;;;;;13.02;10.07;;;30.20;20.60;;;;;;5024273;28;20195;-48
2022/03/14 11:50:49;;;;;;;16.02;10.30;;;30.40;20.50;;;;;;5029845;28;20214;-48
2022/03/14 11:53:24;;;;;;;14.07;9.75;;;30.30;20.30;;;;;;5009064;28;20214;-51
2022/03/14 11:55:55;;;;;;;13.75;9.43;;;30.20;20.30;;;;;;5033144;28;20670;-45
2022/03/14 11:58:34;;;;;;;15.15;10.55;;;30.20;20.40;;;;;;5029473;28;20728;-48
2022/03/14 12:01:14;;;;;;;12.65;8.85;;;30.20;20.30;;;;;;5029697;28;20229;-50
2022/03/14 12:03:46;;;;;;;15.32;10.13;;;30.40;20.50;;;;;;5024801;28;20624;-49
2022/03/14 12:06:15;;;;;;;13.75;9.38;;;30.50;20.60;;;;;;5026860;28;20271;-47
2022/03/14 12:09:00;;;;;;;15.13;10.05;;;30.60;20.10;;;;;;5026058;28;20194;-47
2022/03/14 12:11:43;;;;;;;14.35;10.50;;;30.60;19.70;;;;;;5029348;28;20198;-48
2022/03/14 12:14:14;;;;;;;13.65;9.60;;;30.50;19.60;;;;;;5026334;28;20552;-51
2022/03/14 12:16:44;;;;;;;13.52;10.40;;;30.40;19.80;;;;;;5017564;28;20306;-48
2022/03/14 12:19:28;;;;;;;16.05;9.57;;;30.50;19.90;;;;;;5028832;28;20203;-48
2022/03/14 12:21:58;;;;;;;13.55;10.05;;;30.40;19.80;;;;;;5030412;28;20190;-48
2022/03/14 12:24:45;;;;;;;10.90;8.38;;;30.50;19.90;;;;;;5029380;28;20289;-48
2022/03/14 12:27:18;;;;;;;18.45;10.07;;;30.90;20.10;;;;;;5028296;28;20205;-52
2022/03/14 12:29:46;;;;;;;13.70;10.02;;;31.20;19.70;;;;;;5022830;28;20218;-47
2022/03/14 12:32:31;;;;;;;17.13;11.30;;;31.00;19.50;;;;;;5024461;28;20223;-46
2022/03/14 12:35:07;;;;;;;16.05;10.73;;;30.90;19.50;;;;;;5026744;28;20599;-49
2022/03/14 12:37:42;;;;;;;14.27;9.82;;;30.70;19.50;;;;;;5022386;28;20281;-46
2022/03/14 12:40:13;;;;;;;14.88;10.15;;;30.70;19.40;;;;;;5025627;28;20208;-53
2022/03/14 12:42:42;;;;;;;14.75;9.65;;;30.60;19.50;;;;;;5026827;28;20190;-48
2022/03/14 12:45:24;;;;;;;12.88;9.90;;;30.80;19.60;;;;;;5029676;28;20187;-47
2022/03/14 12:47:55;;;;;;;14.75;9.65;;;30.90;19.30;;;;;;5027736;28;20201;-52